createdAt,value
2022-10-17T20:09:27.433Z,19.10
2022-10-17T20:11:54.447Z,19.00
2022-10-17T20:14:21.499Z,19.00
2022-10-17T20:16:51.664Z,18.90
2022-10-17T20:19:18.970Z,18.90
2022-10-17T20:21:46.218Z,18.90
2022-10-17T20:24:14.788Z,18.80
2022-10-17T20:26:41.987Z,18.80
2022-10-17T20:29:14.776Z,18.70
2022-10-17T20:31:42.607Z,18.70
2022-10-17T20:34:10.923Z,18.70
2022-10-17T20:36:37.919Z,18.70
2022-10-17T20:39:05.174Z,18.70
2022-10-17T20:41:32.139Z,18.60
2022-10-17T20:43:59.185Z,18.60
2022-10-17T20:49:17.533Z,18.50
2022-10-17T20:51:44.724Z,18.50
2022-10-17T20:54:11.919Z,18.40
2022-10-17T20:56:38.981Z,18.40
2022-10-17T20:59:08.128Z,18.40
2022-10-17T21:01:35.697Z,18.30
2022-10-17T21:04:27.005Z,18.30
2022-10-17T21:06:51.895Z,18.30
2022-10-17T21:09:19.104Z,18.20
2022-10-17T21:11:46.253Z,18.20
2022-10-17T21:14:13.320Z,18.20
2022-10-17T21:16:41.395Z,18.20
2022-10-17T21:19:09.441Z,18.20
2022-10-17T21:21:38.549Z,18.10
2022-10-17T21:24:07.229Z,18.10
2022-10-17T21:26:36.814Z,18.00
2022-10-17T21:29:05.668Z,18.00
2022-10-17T21:31:34.230Z,18.00
2022-10-17T21:34:05.452Z,18.00
2022-10-17T21:36:32.447Z,18.00
2022-10-17T21:38:59.399Z,17.90
2022-10-17T21:41:28.836Z,17.90
2022-10-17T21:43:57.415Z,17.90
2022-10-17T21:46:24.426Z,17.90
2022-10-17T21:48:51.940Z,17.80
2022-10-17T21:51:20.835Z,17.80
2022-10-17T21:53:47.905Z,17.70
2022-10-17T21:56:16.780Z,17.80
2022-10-17T21:58:43.842Z,17.80
2022-10-17T22:01:10.822Z,17.70
2022-10-17T22:03:42.661Z,17.70
2022-10-17T22:09:00.799Z,17.60
2022-10-17T22:11:29.800Z,17.60
2022-10-17T22:13:59.251Z,17.60
2022-10-17T22:16:26.434Z,17.60
2022-10-17T22:18:58.725Z,17.50
2022-10-17T22:21:28.548Z,17.50
2022-10-17T22:23:59.872Z,17.50
2022-10-17T22:26:27.655Z,17.50
2022-10-17T22:28:54.750Z,17.40
2022-10-17T22:31:21.779Z,17.40
2022-10-17T22:33:48.883Z,17.40
2022-10-17T22:36:15.820Z,17.40
2022-10-17T22:38:42.787Z,17.30
2022-10-17T22:41:09.719Z,17.30
2022-10-17T22:43:36.644Z,17.30
2022-10-17T22:46:04.577Z,17.30
2022-10-17T22:48:31.690Z,17.20
2022-10-17T22:50:59.142Z,17.20
2022-10-17T22:53:26.955Z,17.20
2022-10-17T22:55:54.772Z,17.30
2022-10-17T22:58:21.858Z,17.20
2022-10-17T23:00:49.377Z,17.20
2022-10-17T23:03:16.631Z,17.20
2022-10-17T23:05:43.880Z,17.20
2022-10-17T23:08:11.238Z,17.20
2022-10-17T23:10:38.287Z,17.20
2022-10-17T23:13:05.284Z,17.20
2022-10-17T23:15:32.686Z,17.20
2022-10-17T23:17:59.970Z,17.20
2022-10-17T23:20:28.751Z,17.20
2022-10-17T23:22:55.880Z,17.20
2022-10-17T23:25:22.823Z,17.20
2022-10-17T23:27:49.767Z,17.20
2022-10-17T23:30:16.721Z,17.20
2022-10-17T23:32:43.697Z,17.20
2022-10-17T23:35:10.973Z,17.20
2022-10-17T23:37:37.978Z,17.20
2022-10-17T23:40:05.032Z,17.20
2022-10-17T23:42:32.017Z,17.20
2022-10-17T23:44:59.002Z,17.20
2022-10-17T23:47:25.951Z,17.20
2022-10-17T23:49:52.958Z,17.30
2022-10-17T23:52:19.958Z,17.30
2022-10-17T23:54:47.079Z,17.20
2022-10-17T23:57:14.350Z,17.30
2022-10-17T23:59:41.288Z,17.20
